Wetterdaten: Donnerstag, 01.07.2021
Datum Zeit Temp. I. Temp. A. Boden 5 cm Feuchte I. Feuchte A. Sonne Luftdruck Regen Wind
01.07.2021 00:26 21,9 C 11,8 C 10,6 C 59 % 83 % 33 % 1011 hPa 0,0 l/m 0,0 km/h (0 Bft)
01.07.2021 00:29 21,9 C 11,8 C 10,8 C 59 % 83 % 33 % 1011 hPa 0,0 l/m 0,4 km/h (0 Bft)
01.07.2021 00:32 22,0 C 11,8 C 10,9 C 59 % 83 % 33 % 1011 hPa 0,0 l/m 0,0 km/h (0 Bft)
01.07.2021 00:35 22,0 C 11,8 C 10,8 C 59 % 83 % 33 % 1011 hPa 0,0 l/m 0,1 km/h (0 Bft)
01.07.2021 00:38 22,0 C 11,8 C 10,9 C 59 % 83 % 33 % 1011 hPa 0,0 l/m 0,0 km/h (0 Bft)
01.07.2021 00:41 21,9 C 11,8 C 11,0 C 59 % 83 % 33 % 1011 hPa 0,0 l/m 0,0 km/h (0 Bft)
01.07.2021 00:44 22,0 C 11,9 C 10,9 C 59 % 83 % 33 % 1011 hPa 0,0 l/m 0,3 km/h (0 Bft)
01.07.2021 00:47 22,0 C 11,9 C 11,0 C 59 % 83 % 33 % 1011 hPa 0,0 l/m 0,0 km/h (0 Bft)
01.07.2021 00:50 22,0 C 12,0 C 11,1 C 59 % 83 % 33 % 1011 hPa 0,0 l/m 0,0 km/h (0 Bft)
01.07.2021 00:53 22,0 C 12,0 C 11,2 C 59 % 83 % 33 % 1011 hPa 0,0 l/m 0,1 km/h (0 Bft)
01.07.2021 00:56 22,0 C 12,0 C 11,0 C 59 % 83 % 33 % 1011 hPa 0,0 l/m 0,1 km/h (0 Bft)
01.07.2021 00:59 22,0 C 12,0 C 11,0 C 59 % 83 % 33 % 1011 hPa 0,0 l/m 0,0 km/h (0 Bft)
01.07.2021 01:02 22,0 C 12,0 C 11,0 C 59 % 83 % 33 % 1011 hPa 0,0 l/m 0,7 km/h (0 Bft)
01.07.2021 01:05 22,0 C 12,0 C 11,0 C 59 % 83 % 33 % 1011 hPa 0,0 l/m 0,2 km/h (0 Bft)
01.07.2021 01:08 22,0 C 12,1 C 11,0 C 59 % 83 % 33 % 1011 hPa 0,0 l/m 0,0 km/h (0 Bft)
01.07.2021 01:11 22,0 C 12,1 C 11,0 C 59 % 83 % 33 % 1011 hPa 0,0 l/m 0,6 km/h (0 Bft)
01.07.2021 01:14 22,0 C 12,1 C 11,1 C 59 % 83 % 33 % 1011 hPa 0,0 l/m 0,5 km/h (0 Bft)
01.07.2021 01:17 22,0 C 12,1 C 11,2 C 59 % 83 % 33 % 1011 hPa 0,0 l/m 2,7 km/h (1 Bft)
01.07.2021 01:20 22,0 C 12,1 C 11,1 C 59 % 83 % 33 % 1011 hPa 0,0 l/m 0,5 km/h (0 Bft)
01.07.2021 01:23 22,0 C 12,1 C 11,1 C 59 % 83 % 33 % 1011 hPa 0,0 l/m 0,0 km/h (0 Bft)
01.07.2021 01:26 22,0 C 12,1 C 11,2 C 59 % 83 % 33 % 1011 hPa 0,0 l/m 0,4 km/h (0 Bft)
01.07.2021 01:29 22,0 C 12,2 C 11,1 C 59 % 83 % 33 % 1011 hPa 0,0 l/m 0,4 km/h (0 Bft)
01.07.2021 01:32 22,0 C 12,2 C 11,1 C 59 % 83 % 33 % 1011 hPa 0,0 l/m 0,0 km/h (0 Bft)
01.07.2021 01:35 22,0 C 12,2 C 11,2 C 59 % 83 % 33 % 1011 hPa 0,0 l/m 0,0 km/h (0 Bft)
01.07.2021 01:38 22,0 C 12,2 C 11,2 C 59 % 83 % 33 % 1011 hPa 0,0 l/m 0,0 km/h (0 Bft)
01.07.2021 01:41 22,0 C 12,2 C 10,9 C 59 % 83 % 33 % 1011 hPa 0,0 l/m 0,0 km/h (0 Bft)
01.07.2021 01:44 22,0 C 12,2 C 11,1 C 59 % 83 % 33 % 1011 hPa 0,0 l/m 1,2 km/h (1 Bft)
01.07.2021 01:47 22,0 C 12,2 C 11,0 C 59 % 83 % 33 % 1011 hPa 0,0 l/m 0,0 km/h (0 Bft)
01.07.2021 01:50 22,0 C 12,2 C 11,2 C 59 % 83 % 33 % 1011 hPa 0,0 l/m 0,0 km/h (0 Bft)
01.07.2021 01:53 22,0 C 12,2 C 10,9 C 59 % 83 % 33 % 1011 hPa 0,0 l/m 0,0 km/h (0 Bft)
01.07.2021 01:56 22,0 C 12,2 C 11,1 C 59 % 83 % 33 % 1011 hPa 0,0 l/m 0,3 km/h (0 Bft)
01.07.2021 01:59 22,0 C 12,1 C 10,9 C 59 % 83 % 33 % 1011 hPa 0,0 l/m 1,9 km/h (1 Bft)
01.07.2021 02:02 22,0 C 12,0 C 11,0 C 59 % 83 % 33 % 1011 hPa 0,0 l/m 0,0 km/h (0 Bft)
01.07.2021 02:05 22,0 C 12,0 C 10,8 C 59 % 83 % 33 % 1011 hPa 0,0 l/m 0,0 km/h (0 Bft)
01.07.2021 02:08 22,0 C 12,0 C 10,8 C 59 % 83 % 33 % 1011 hPa 0,0 l/m 0,0 km/h (0 Bft)
01.07.2021 02:11 22,0 C 12,0 C 10,9 C 59 % 83 % 33 % 1011 hPa 0,0 l/m 0,0 km/h (0 Bft)
01.07.2021 02:14 22,0 C 12,0 C 10,9 C 59 % 83 % 33 % 1011 hPa 0,0 l/m 0,0 km/h (0 Bft)
01.07.2021 02:17 22,0 C 12,0 C 11,0 C 59 % 83 % 33 % 1011 hPa 0,0 l/m 0,0 km/h (0 Bft)
01.07.2021 02:20 22,0 C 12,0 C 11,0 C 59 % 83 % 33 % 1011 hPa 0,0 l/m 0,1 km/h (0 Bft)
01.07.2021 02:23 22,0 C 12,0 C 11,2 C 59 % 83 % 33 % 1011 hPa 0,0 l/m 0,0 km/h (0 Bft)
01.07.2021 02:26 22,0 C 12,1 C 11,2 C 59 % 83 % 33 % 1011 hPa 0,0 l/m 0,0 km/h (0 Bft)
01.07.2021 02:29 22,0 C 12,1 C 11,1 C 59 % 83 % 33 % 1011 hPa 0,0 l/m 0,0 km/h (0 Bft)
01.07.2021 02:32 22,0 C 12,1 C 10,9 C 59 % 83 % 33 % 1011 hPa 0,0 l/m 0,0 km/h (0 Bft)
01.07.2021 02:35 22,0 C 12,1 C 11,1 C 59 % 83 % 33 % 1011 hPa 0,0 l/m 0,0 km/h (0 Bft)
01.07.2021 02:38 22,0 C 12,1 C 11,2 C 59 % 83 % 33 % 1011 hPa 0,0 l/m 0,3 km/h (0 Bft)
01.07.2021 02:41 22,0 C 12,0 C 11,1 C 59 % 83 % 33 % 1011 hPa 0,0 l/m 0,1 km/h (0 Bft)
01.07.2021 02:44 22,0 C 12,0 C 11,1 C 59 % 83 % 33 % 1011 hPa 0,0 l/m 0,1 km/h (0 Bft)
01.07.2021 02:47 22,0 C 12,0 C 11,2 C 59 % 83 % 33 % 1011 hPa 0,0 l/m 0,3 km/h (0 Bft)
01.07.2021 02:50 22,0 C 12,1 C 11,2 C 59 % 83 % 33 % 1011 hPa 0,0 l/m 0,0 km/h (0 Bft)
01.07.2021 02:53 22,0 C 12,1 C 11,3 C 59 % 83 % 33 % 1011 hPa 0,0 l/m 2,6 km/h (1 Bft)
01.07.2021 02:56 22,0 C 12,1 C 11,3 C 59 % 83 % 33 % 1011 hPa 0,0 l/m 2,3 km/h (1 Bft)
01.07.2021 02:59 22,0 C 12,1 C 11,4 C 59 % 83 % 33 % 1011 hPa 0,0 l/m 1,0 km/h (0 Bft)
01.07.2021 03:02 22,0 C 12,2 C 11,4 C 59 % 83 % 33 % 1011 hPa 0,0 l/m 3,8 km/h (1 Bft)
01.07.2021 03:05 22,0 C 12,1 C 11,2 C 59 % 83 % 33 % 1011 hPa 0,3 l/m 0,3 km/h (0 Bft)
01.07.2021 03:08 22,0 C 12,1 C 11,2 C 59 % 83 % 33 % 1011 hPa 0,0 l/m 0,0 km/h (0 Bft)
01.07.2021 03:11 22,0 C 12,1 C 11,1 C 59 % 83 % 33 % 1011 hPa 0,0 l/m 0,6 km/h (0 Bft)
01.07.2021 03:14 22,0 C 12,1 C 11,0 C 59 % 83 % 33 % 1011 hPa 0,0 l/m 0,0 km/h (0 Bft)
01.07.2021 03:17 22,0 C 12,0 C 11,0 C 59 % 83 % 33 % 1011 hPa 0,0 l/m 0,0 km/h (0 Bft)
01.07.2021 03:20 22,0 C 12,0 C 11,3 C 59 % 83 % 33 % 1011 hPa 0,0 l/m 1,5 km/h (1 Bft)
01.07.2021 03:23 22,0 C 12,1 C 11,1 C 59 % 83 % 33 % 1011 hPa 0,0 l/m 1,2 km/h (1 Bft)
01.07.2021 03:26 22,0 C 12,0 C 11,0 C 59 % 83 % 33 % 1011 hPa 0,0 l/m 0,3 km/h (0 Bft)
01.07.2021 03:29 22,0 C 12,1 C 11,0 C 59 % 83 % 33 % 1011 hPa 0,0 l/m 0,3 km/h (0 Bft)
01.07.2021 03:32 22,0 C 12,1 C 11,1 C 59 % 83 % 33 % 1011 hPa 0,0 l/m 1,9 km/h (1 Bft)
01.07.2021 03:35 22,0 C 12,1 C 11,2 C 59 % 83 % 33 % 1011 hPa 0,0 l/m 0,3 km/h (0 Bft)
01.07.2021 03:38 22,0 C 12,1 C 11,2 C 59 % 83 % 33 % 1011 hPa 0,0 l/m 0,2 km/h (0 Bft)
01.07.2021 03:41 22,0 C 12,1 C 11,3 C 59 % 83 % 33 % 1011 hPa 0,0 l/m 0,3 km/h (0 Bft)
01.07.2021 03:44 22,0 C 12,1 C 11,3 C 59 % 83 % 33 % 1011 hPa 0,0 l/m 0,0 km/h (0 Bft)
01.07.2021 03:47 22,0 C 12,1 C 11,2 C 59 % 83 % 33 % 1011 hPa 0,0 l/m 0,0 km/h (0 Bft)
01.07.2021 03:50 22,0 C 12,1 C 11,4 C 59 % 83 % 33 % 1011 hPa 0,0 l/m 0,0 km/h (0 Bft)
01.07.2021 03:53 22,0 C 12,1 C 11,3 C 59 % 83 % 33 % 1011 hPa 0,0 l/m 0,1 km/h (0 Bft)
01.07.2021 03:56 22,0 C 12,1 C 11,2 C 59 % 83 % 33 % 1011 hPa 0,0 l/m 0,1 km/h (0 Bft)
01.07.2021 03:59 22,0 C 12,1 C 11,1 C 59 % 83 % 33 % 1011 hPa 0,0 l/m 0,0 km/h (0 Bft)
01.07.2021 04:02 22,0 C 12,1 C 11,3 C 59 % 83 % 33 % 1011 hPa 0,0 l/m 0,0 km/h (0 Bft)
01.07.2021 04:05 22,0 C 12,0 C 11,1 C 59 % 83 % 33 % 1011 hPa 0,0 l/m 0,1 km/h (0 Bft)
01.07.2021 04:08 22,0 C 12,0 C 11,2 C 59 % 83 % 33 % 1011 hPa 0,0 l/m 0,3 km/h (0 Bft)
01.07.2021 04:11 22,0 C 12,0 C 11,1 C 59 % 83 % 33 % 1011 hPa 0,0 l/m 0,3 km/h (0 Bft)
01.07.2021 04:14 22,0 C 12,0 C 11,1 C 59 % 83 % 33 % 1011 hPa 0,0 l/m 0,2 km/h (0 Bft)
01.07.2021 04:17 22,0 C 12,0 C 11,0 C 59 % 83 % 33 % 1011 hPa 0,0 l/m 0,6 km/h (0 Bft)
01.07.2021 04:20 22,0 C 12,0 C 11,1 C 59 % 83 % 33 % 1011 hPa 0,0 l/m 0,0 km/h (0 Bft)
01.07.2021 04:23 22,0 C 12,0 C 11,2 C 59 % 83 % 33 % 1011 hPa 0,0 l/m 0,0 km/h (0 Bft)
01.07.2021 04:26 22,0 C 12,0 C 11,1 C 59 % 83 % 33 % 1011 hPa 0,0 l/m 0,0 km/h (0 Bft)
01.07.2021 04:29 22,0 C 12,0 C 11,2 C 59 % 83 % 33 % 1011 hPa 0,0 l/m 0,4 km/h (0 Bft)
01.07.2021 04:32 22,0 C 12,1 C 11,2 C 59 % 83 % 33 % 1011 hPa 0,0 l/m 0,1 km/h (0 Bft)
01.07.2021 04:35 22,0 C 12,1 C 11,3 C 59 % 83 % 33 % 1011 hPa 0,0 l/m 0,0 km/h (0 Bft)
01.07.2021 04:38 22,0 C 12,2 C 11,2 C 59 % 83 % 33 % 1011 hPa 0,0 l/m 5,2 km/h (1 Bft)
01.07.2021 04:41 22,0 C 12,1 C 11,2 C 59 % 83 % 33 % 1011 hPa 0,0 l/m 0,9 km/h (0 Bft)
01.07.2021 04:44 22,0 C 12,1 C 11,2 C 59 % 83 % 33 % 1011 hPa 0,0 l/m 4,5 km/h (1 Bft)
01.07.2021 04:47 22,0 C 12,2 C 11,2 C 59 % 83 % 33 % 1011 hPa 0,0 l/m 12,3 km/h (3 Bft)
01.07.2021 04:50 22,0 C 12,2 C 11,4 C 59 % 83 % 33 % 1011 hPa 0,0 l/m 3,9 km/h (1 Bft)
01.07.2021 04:53 22,0 C 12,2 C 11,4 C 59 % 83 % 33 % 1011 hPa 0,0 l/m 7,8 km/h (2 Bft)
01.07.2021 04:56 22,0 C 12,2 C 11,4 C 59 % 83 % 33 % 1011 hPa 0,0 l/m 13,3 km/h (3 Bft)
01.07.2021 04:58 22,0 C 12,2 C 11,4 C 59 % 83 % 33 % 1011 hPa 0,0 l/m 13,5 km/h (3 Bft)
01.07.2021 05:02 22,0 C 12,3 C 11,4 C 59 % 83 % 33 % 1011 hPa 0,0 l/m 13,5 km/h (3 Bft)
01.07.2021 05:05 22,0 C 12,2 C 11,3 C 59 % 83 % 33 % 1011 hPa 0,0 l/m 9,5 km/h (2 Bft)
01.07.2021 05:08 22,0 C 12,2 C 11,3 C 59 % 82 % 33 % 1011 hPa 0,0 l/m 11,5 km/h (2 Bft)
01.07.2021 05:11 22,0 C 12,2 C 11,3 C 59 % 83 % 33 % 1011 hPa 0,0 l/m 8,3 km/h (2 Bft)
01.07.2021 05:14 22,0 C 12,2 C 11,2 C 59 % 83 % 33 % 1011 hPa 0,0 l/m 8,5 km/h (2 Bft)
01.07.2021 05:17 22,0 C 12,2 C 11,2 C 59 % 83 % 33 % 1011 hPa 0,0 l/m 9,8 km/h (2 Bft)
01.07.2021 05:20 22,0 C 12,1 C 11,2 C 59 % 83 % 33 % 1011 hPa 0,0 l/m 6,9 km/h (2 Bft)
01.07.2021 05:23 22,0 C 12,2 C 11,3 C 59 % 82 % 33 % 1011 hPa 0,0 l/m 4,3 km/h (1 Bft)
01.07.2021 05:26 22,0 C 12,2 C 11,2 C 59 % 83 % 33 % 1011 hPa 0,0 l/m 6,3 km/h (2 Bft)
01.07.2021 05:29 22,0 C 12,2 C 11,4 C 59 % 82 % 33 % 1011 hPa 0,0 l/m 7,9 km/h (2 Bft)
01.07.2021 05:32 22,0 C 12,2 C 11,4 C 59 % 82 % 33 % 1011 hPa 0,0 l/m 10,5 km/h (2 Bft)
01.07.2021 05:35 22,0 C 12,2 C 11,4 C 59 % 82 % 33 % 1011 hPa 0,0 l/m 17,2 km/h (3 Bft)
01.07.2021 05:38 22,0 C 12,3 C 11,5 C 59 % 82 % 33 % 1011 hPa 0,0 l/m 9,1 km/h (2 Bft)
01.07.2021 05:41 22,0 C 12,3 C 11,5 C 59 % 82 % 33 % 1011 hPa 0,0 l/m 7,8 km/h (2 Bft)
01.07.2021 05:44 22,0 C 12,3 C 11,5 C 59 % 82 % 33 % 1011 hPa 0,0 l/m 5,0 km/h (1 Bft)
01.07.2021 05:47 22,0 C 12,3 C 11,5 C 59 % 82 % 33 % 1011 hPa 0,0 l/m 8,1 km/h (2 Bft)
01.07.2021 05:50 22,0 C 12,3 C 11,6 C 59 % 82 % 33 % 1011 hPa 0,0 l/m 4,8 km/h (1 Bft)
01.07.2021 05:53 22,0 C 12,4 C 11,6 C 59 % 82 % 33 % 1011 hPa 0,0 l/m 4,0 km/h (1 Bft)
01.07.2021 05:56 22,0 C 12,4 C 11,6 C 59 % 82 % 33 % 1011 hPa 0,0 l/m 5,3 km/h (1 Bft)
01.07.2021 05:59 22,0 C 12,4 C 11,6 C 59 % 82 % 33 % 1011 hPa 0,0 l/m 1,9 km/h (1 Bft)
01.07.2021 06:02 22,0 C 12,4 C 11,6 C 59 % 82 % 33 % 1011 hPa 0,0 l/m 1,9 km/h (1 Bft)
01.07.2021 06:05 22,0 C 12,5 C 11,7 C 59 % 82 % 33 % 1011 hPa 0,0 l/m 6,2 km/h (2 Bft)
01.07.2021 06:08 22,0 C 12,5 C 11,7 C 59 % 82 % 33 % 1012 hPa 0,0 l/m 12,7 km/h (3 Bft)
01.07.2021 06:11 22,0 C 12,5 C 11,7 C 59 % 82 % 33 % 1012 hPa 0,0 l/m 10,2 km/h (2 Bft)
01.07.2021 06:14 22,0 C 12,5 C 11,7 C 59 % 82 % 33 % 1012 hPa 0,0 l/m 14,3 km/h (3 Bft)
01.07.2021 06:17 22,0 C 12,5 C 11,7 C 58 % 82 % 33 % 1012 hPa 0,0 l/m 15,2 km/h (3 Bft)
01.07.2021 06:20 22,0 C 12,6 C 11,7 C 58 % 82 % 33 % 1012 hPa 0,0 l/m 9,4 km/h (2 Bft)
01.07.2021 06:23 22,0 C 12,6 C 11,7 C 58 % 82 % 33 % 1012 hPa 0,0 l/m 11,0 km/h (2 Bft)
01.07.2021 06:26 22,0 C 12,5 C 11,7 C 58 % 82 % 33 % 1012 hPa 0,0 l/m 13,0 km/h (3 Bft)
01.07.2021 06:29 22,0 C 12,5 C 11,7 C 58 % 82 % 33 % 1012 hPa 0,0 l/m 9,4 km/h (2 Bft)
01.07.2021 06:32 22,0 C 12,6 C 11,6 C 58 % 82 % 33 % 1012 hPa 0,0 l/m 9,6 km/h (2 Bft)
01.07.2021 06:35 22,0 C 12,6 C 11,6 C 58 % 82 % 33 % 1012 hPa 0,0 l/m 12,6 km/h (3 Bft)
01.07.2021 06:38 22,0 C 12,6 C 11,6 C 58 % 82 % 33 % 1012 hPa 0,0 l/m 12,6 km/h (3 Bft)
01.07.2021 06:41 22,0 C 12,6 C 11,6 C 58 % 82 % 33 % 1012 hPa 0,0 l/m 16,5 km/h (3 Bft)
01.07.2021 06:44 22,0 C 12,6 C 11,6 C 58 % 82 % 33 % 1012 hPa 0,0 l/m 21,2 km/h (4 Bft)
01.07.2021 06:47 22,0 C 12,6 C 11,6 C 58 % 82 % 33 % 1012 hPa 0,0 l/m 13,9 km/h (3 Bft)
01.07.2021 06:50 22,0 C 12,6 C 11,6 C 58 % 82 % 33 % 1012 hPa 0,0 l/m 11,1 km/h (2 Bft)
01.07.2021 06:53 22,0 C 12,6 C 11,7 C 59 % 82 % 33 % 1012 hPa 0,0 l/m 14,8 km/h (3 Bft)
01.07.2021 06:56 22,0 C 12,6 C 11,7 C 59 % 82 % 33 % 1012 hPa 0,0 l/m 14,1 km/h (3 Bft)
01.07.2021 06:59 22,0 C 12,6 C 11,8 C 59 % 82 % 33 % 1012 hPa 0,0 l/m 5,8 km/h (2 Bft)
01.07.2021 07:02 22,0 C 12,6 C 11,8 C 59 % 82 % 33 % 1012 hPa 0,0 l/m 13,1 km/h (3 Bft)
01.07.2021 07:05 22,0 C 12,6 C 11,8 C 59 % 82 % 33 % 1012 hPa 0,0 l/m 13,5 km/h (3 Bft)
01.07.2021 07:08 22,0 C 12,7 C 12,0 C 59 % 82 % 33 % 1012 hPa 0,0 l/m 13,3 km/h (3 Bft)
01.07.2021 07:11 22,0 C 12,8 C 11,9 C 59 % 82 % 33 % 1012 hPa 0,0 l/m 13,5 km/h (3 Bft)
01.07.2021 07:14 22,0 C 12,8 C 11,9 C 59 % 82 % 33 % 1012 hPa 0,0 l/m 13,5 km/h (3 Bft)
01.07.2021 07:17 22,0 C 12,8 C 11,9 C 59 % 81 % 33 % 1012 hPa 0,0 l/m 20,3 km/h (4 Bft)
01.07.2021 07:20 22,0 C 12,8 C 11,9 C 59 % 81 % 33 % 1012 hPa 0,0 l/m 15,1 km/h (3 Bft)
01.07.2021 07:23 22,0 C 12,8 C 11,9 C 59 % 81 % 33 % 1012 hPa 0,0 l/m 12,9 km/h (3 Bft)
01.07.2021 07:26 22,0 C 12,8 C 12,0 C 59 % 81 % 33 % 1012 hPa 0,0 l/m 12,0 km/h (2 Bft)
01.07.2021 07:29 22,0 C 12,9 C 12,0 C 59 % 81 % 33 % 1012 hPa 0,0 l/m 11,2 km/h (2 Bft)
01.07.2021 07:32 22,0 C 12,9 C 12,1 C 59 % 81 % 33 % 1012 hPa 0,0 l/m 11,2 km/h (2 Bft)
01.07.2021 07:35 22,0 C 12,9 C 12,1 C 59 % 81 % 33 % 1012 hPa 0,0 l/m 16,8 km/h (3 Bft)
01.07.2021 07:38 21,9 C 12,9 C 12,0 C 59 % 81 % 33 % 1012 hPa 0,0 l/m 18,1 km/h (3 Bft)
01.07.2021 07:41 21,9 C 12,9 C 12,0 C 59 % 81 % 33 % 1012 hPa 0,0 l/m 12,9 km/h (3 Bft)
01.07.2021 07:44 21,9 C 13,0 C 12,0 C 59 % 81 % 33 % 1012 hPa 0,0 l/m 17,3 km/h (3 Bft)
01.07.2021 07:47 22,0 C 12,9 C 11,9 C 59 % 82 % 33 % 1012 hPa 0,0 l/m 10,3 km/h (2 Bft)
01.07.2021 07:50 21,9 C 12,9 C 12,0 C 59 % 82 % 33 % 1012 hPa 0,0 l/m 7,4 km/h (2 Bft)
01.07.2021 07:53 22,0 C 13,0 C 11,9 C 59 % 82 % 33 % 1012 hPa 0,0 l/m 13,0 km/h (3 Bft)
01.07.2021 07:56 22,0 C 13,0 C 12,1 C 59 % 82 % 33 % 1012 hPa 0,0 l/m 7,2 km/h (2 Bft)
01.07.2021 07:59 21,9 C 13,0 C 12,0 C 59 % 82 % 33 % 1012 hPa 0,0 l/m 7,8 km/h (2 Bft)
01.07.2021 08:02 22,0 C 13,0 C 12,0 C 59 % 82 % 33 % 1012 hPa 0,0 l/m 5,6 km/h (1 Bft)
01.07.2021 08:05 22,0 C 13,0 C 12,0 C 59 % 82 % 33 % 1012 hPa 0,0 l/m 5,7 km/h (1 Bft)
01.07.2021 08:08 21,9 C 13,0 C 12,0 C 59 % 82 % 33 % 1012 hPa 0,0 l/m 2,2 km/h (1 Bft)
01.07.2021 08:11 21,9 C 13,0 C 12,1 C 59 % 82 % 33 % 1012 hPa 0,0 l/m 7,6 km/h (2 Bft)
01.07.2021 08:14 21,9 C 13,0 C 12,1 C 59 % 82 % 33 % 1012 hPa 0,0 l/m 6,1 km/h (2 Bft)
01.07.2021 08:17 21,9 C 13,1 C 12,1 C 59 % 82 % 33 % 1012 hPa 0,0 l/m 2,8 km/h (1 Bft)
01.07.2021 08:20 21,9 C 13,2 C 12,2 C 59 % 82 % 33 % 1012 hPa 0,0 l/m 7,2 km/h (2 Bft)
01.07.2021 08:23 21,9 C 13,2 C 12,2 C 59 % 82 % 33 % 1012 hPa 0,0 l/m 5,3 km/h (1 Bft)
01.07.2021 08:26 21,9 C 13,2 C 12,3 C 59 % 82 % 33 % 1012 hPa 0,0 l/m 6,2 km/h (2 Bft)
01.07.2021 08:29 21,9 C 13,2 C 12,3 C 59 % 82 % 33 % 1012 hPa 0,0 l/m 6,3 km/h (2 Bft)
01.07.2021 08:32 21,9 C 13,2 C 12,3 C 59 % 82 % 33 % 1012 hPa 0,0 l/m 7,0 km/h (2 Bft)
01.07.2021 08:35 21,9 C 13,2 C 12,3 C 59 % 82 % 33 % 1012 hPa 0,0 l/m 7,8 km/h (2 Bft)
01.07.2021 08:38 21,9 C 13,3 C 12,4 C 59 % 82 % 33 % 1012 hPa 0,0 l/m 12,2 km/h (2 Bft)
01.07.2021 08:41 21,9 C 13,3 C 12,5 C 59 % 82 % 33 % 1012 hPa 0,0 l/m 12,2 km/h (2 Bft)
01.07.2021 08:44 21,9 C 13,4 C 12,5 C 59 % 82 % 33 % 1012 hPa 0,0 l/m 8,7 km/h (2 Bft)
01.07.2021 08:47 21,9 C 13,4 C 12,7 C 59 % 82 % 33 % 1012 hPa 0,0 l/m 8,7 km/h (2 Bft)
01.07.2021 08:50 22,0 C 13,5 C 12,7 C 59 % 82 % 33 % 1012 hPa 0,0 l/m 8,5 km/h (2 Bft)
01.07.2021 08:53 21,9 C 13,5 C 12,7 C 59 % 81 % 33 % 1012 hPa 0,0 l/m 12,3 km/h (3 Bft)
01.07.2021 08:56 21,9 C 13,6 C 12,7 C 59 % 82 % 33 % 1012 hPa 0,0 l/m 12,6 km/h (3 Bft)
01.07.2021 08:59 22,0 C 13,6 C 12,8 C 59 % 82 % 33 % 1012 hPa 0,0 l/m 9,3 km/h (2 Bft)
01.07.2021 09:02 22,0 C 13,6 C 12,7 C 59 % 82 % 33 % 1012 hPa 0,0 l/m 8,7 km/h (2 Bft)
01.07.2021 09:05 22,0 C 13,6 C 12,7 C 59 % 82 % 33 % 1012 hPa 0,0 l/m 11,1 km/h (2 Bft)
01.07.2021 09:08 21,9 C 13,6 C 12,6 C 59 % 82 % 33 % 1012 hPa 0,0 l/m 9,4 km/h (2 Bft)
01.07.2021 09:11 22,0 C 13,6 C 12,6 C 59 % 82 % 33 % 1012 hPa 0,0 l/m 9,6 km/h (2 Bft)
01.07.2021 09:14 22,0 C 13,6 C 12,6 C 59 % 82 % 33 % 1012 hPa 0,0 l/m 14,4 km/h (3 Bft)
01.07.2021 09:17 22,0 C 13,6 C 12,6 C 59 % 82 % 33 % 1012 hPa 0,0 l/m 11,7 km/h (2 Bft)
01.07.2021 09:20 21,9 C 13,6 C 12,6 C 59 % 82 % 33 % 1012 hPa 0,0 l/m 11,7 km/h (2 Bft)
01.07.2021 09:23 22,0 C 13,6 C 12,6 C 59 % 82 % 33 % 1012 hPa 0,0 l/m 10,0 km/h (2 Bft)
01.07.2021 09:26 22,0 C 13,6 C 12,7 C 59 % 82 % 33 % 1012 hPa 0,0 l/m 6,8 km/h (2 Bft)
01.07.2021 09:29 22,0 C 13,7 C 12,7 C 59 % 82 % 33 % 1012 hPa 0,0 l/m 8,0 km/h (2 Bft)
01.07.2021 09:32 22,0 C 13,6 C 12,7 C 59 % 82 % 33 % 1012 hPa 0,0 l/m 7,8 km/h (2 Bft)
01.07.2021 09:35 22,0 C 13,7 C 12,7 C 59 % 82 % 33 % 1012 hPa 0,0 l/m 8,3 km/h (2 Bft)
01.07.2021 09:38 22,0 C 13,7 C 12,8 C 59 % 82 % 33 % 1012 hPa 0,0 l/m 9,4 km/h (2 Bft)
01.07.2021 09:41 22,0 C 13,7 C 12,8 C 59 % 82 % 33 % 1012 hPa 0,0 l/m 9,8 km/h (2 Bft)
01.07.2021 09:44 22,0 C 13,8 C 12,8 C 59 % 82 % 33 % 1012 hPa 0,0 l/m 9,8 km/h (2 Bft)
01.07.2021 09:47 22,0 C 13,8 C 12,8 C 59 % 82 % 33 % 1012 hPa 0,0 l/m 11,1 km/h (2 Bft)
01.07.2021 09:50 22,0 C 13,8 C 12,9 C 59 % 82 % 33 % 1012 hPa 0,0 l/m 10,2 km/h (2 Bft)
01.07.2021 09:53 22,0 C 13,9 C 13,1 C 59 % 82 % 33 % 1012 hPa 0,0 l/m 8,1 km/h (2 Bft)
01.07.2021 09:56 22,0 C 13,9 C 13,1 C 59 % 82 % 33 % 1013 hPa 0,0 l/m 11,7 km/h (2 Bft)
01.07.2021 09:59 22,0 C 13,9 C 13,0 C 59 % 82 % 33 % 1013 hPa 0,0 l/m 10,6 km/h (2 Bft)
01.07.2021 10:02 22,0 C 14,0 C 12,9 C 59 % 82 % 33 % 1013 hPa 0,0 l/m 15,3 km/h (3 Bft)
01.07.2021 10:05 22,1 C 14,0 C 13,0 C 59 % 82 % 33 % 1013 hPa 0,0 l/m 10,2 km/h (2 Bft)
01.07.2021 10:08 22,1 C 14,0 C 12,7 C 59 % 82 % 33 % 1013 hPa 0,0 l/m 11,1 km/h (2 Bft)
01.07.2021 10:11 22,0 C 14,0 C 12,8 C 59 % 82 % 33 % 1013 hPa 0,0 l/m 14,6 km/h (3 Bft)
01.07.2021 10:14 22,0 C 13,9 C 12,8 C 59 % 82 % 33 % 1013 hPa 0,0 l/m 12,0 km/h (2 Bft)
01.07.2021 10:17 22,0 C 13,9 C 12,8 C 59 % 82 % 33 % 1013 hPa 0,0 l/m 9,0 km/h (2 Bft)
01.07.2021 10:20 22,1 C 14,0 C 13,1 C 59 % 82 % 33 % 1013 hPa 0,0 l/m 0,7 km/h (0 Bft)
01.07.2021 10:23 22,0 C 14,0 C 13,1 C 59 % 82 % 33 % 1012 hPa 0,0 l/m 6,2 km/h (2 Bft)
01.07.2021 10:26 22,0 C 14,0 C 13,1 C 59 % 82 % 33 % 1012 hPa 0,0 l/m 8,0 km/h (2 Bft)
01.07.2021 10:29 22,0 C 14,0 C 13,1 C 59 % 82 % 33 % 1012 hPa 0,0 l/m 5,5 km/h (1 Bft)
01.07.2021 10:32 22,0 C 14,1 C 12,9 C 59 % 82 % 33 % 1012 hPa 0,0 l/m 11,8 km/h (2 Bft)
01.07.2021 10:35 22,0 C 14,0 C 13,2 C 59 % 82 % 33 % 1013 hPa 0,0 l/m 11,0 km/h (2 Bft)
01.07.2021 10:38 22,0 C 14,1 C 13,2 C 59 % 82 % 33 % 1013 hPa 0,0 l/m 8,3 km/h (2 Bft)
01.07.2021 10:41 22,0 C 14,1 C 13,3 C 59 % 82 % 33 % 1013 hPa 0,0 l/m 16,8 km/h (3 Bft)
01.07.2021 10:44 22,0 C 14,2 C 13,3 C 59 % 82 % 33 % 1012 hPa 0,0 l/m 7,8 km/h (2 Bft)
01.07.2021 10:47 22,0 C 14,2 C 13,3 C 59 % 81 % 33 % 1012 hPa 0,0 l/m 13,3 km/h (3 Bft)
01.07.2021 10:50 22,0 C 14,3 C 13,2 C 59 % 81 % 33 % 1012 hPa 0,0 l/m 11,8 km/h (2 Bft)
01.07.2021 10:53 22,0 C 14,3 C 13,1 C 59 % 81 % 33 % 1012 hPa 0,0 l/m 11,1 km/h (2 Bft)
01.07.2021 10:56 22,1 C 14,3 C 13,2 C 59 % 81 % 33 % 1012 hPa 0,0 l/m 10,0 km/h (2 Bft)
01.07.2021 10:59 22,0 C 14,2 C 13,1 C 59 % 81 % 33 % 1012 hPa 0,0 l/m 10,0 km/h (2 Bft)
01.07.2021 11:02 22,0 C 14,2 C 13,1 C 59 % 81 % 33 % 1012 hPa 0,0 l/m 9,4 km/h (2 Bft)
01.07.2021 11:05 22,0 C 14,2 C 13,3 C 59 % 80 % 33 % 1013 hPa 0,0 l/m 10,5 km/h (2 Bft)
01.07.2021 11:08 22,0 C 14,4 C 13,5 C 59 % 80 % 33 % 1013 hPa 0,0 l/m 12,4 km/h (3 Bft)
01.07.2021 11:11 22,0 C 14,4 C 13,6 C 60 % 80 % 33 % 1013 hPa 0,0 l/m 14,0 km/h (3 Bft)
01.07.2021 11:14 22,0 C 14,5 C 13,7 C 60 % 80 % 33 % 1013 hPa 0,0 l/m 10,7 km/h (2 Bft)
01.07.2021 11:17 22,0 C 14,6 C 13,7 C 60 % 80 % 33 % 1013 hPa 0,0 l/m 4,3 km/h (1 Bft)
01.07.2021 11:20 22,1 C 14,6 C 13,5 C 60 % 80 % 33 % 1013 hPa 0,0 l/m 7,2 km/h (2 Bft)
01.07.2021 11:23 22,0 C 14,6 C 13,4 C 60 % 80 % 33 % 1013 hPa 0,0 l/m 11,0 km/h (2 Bft)
01.07.2021 11:26 22,1 C 14,6 C 13,5 C 60 % 80 % 33 % 1013 hPa 0,0 l/m 9,5 km/h (2 Bft)
01.07.2021 11:29 22,1 C 14,6 C 13,5 C 60 % 80 % 33 % 1013 hPa 0,0 l/m 11,6 km/h (2 Bft)
01.07.2021 11:32 22,1 C 14,6 C 13,7 C 60 % 80 % 33 % 1013 hPa 0,0 l/m 11,6 km/h (2 Bft)
01.07.2021 11:35 22,1 C 14,7 C 13,8 C 60 % 80 % 33 % 1013 hPa 0,0 l/m 11,8 km/h (2 Bft)
01.07.2021 11:38 22,1 C 14,8 C 13,8 C 60 % 80 % 33 % 1013 hPa 0,0 l/m 11,8 km/h (2 Bft)
01.07.2021 11:41 22,0 C 14,8 C 13,8 C 60 % 80 % 33 % 1013 hPa 0,0 l/m 10,6 km/h (2 Bft)
01.07.2021 11:44 22,0 C 14,8 C 13,8 C 60 % 80 % 33 % 1013 hPa 0,0 l/m 8,1 km/h (2 Bft)
01.07.2021 11:47 22,1 C 14,8 C 13,8 C 60 % 79 % 33 % 1013 hPa 0,0 l/m 8,1 km/h (2 Bft)
01.07.2021 11:50 22,0 C 14,7 C 13,4 C 60 % 79 % 33 % 1013 hPa 0,0 l/m 7,9 km/h (2 Bft)
01.07.2021 11:53 22,1 C 14,8 C 13,6 C 60 % 80 % 33 % 1013 hPa 0,0 l/m 8,5 km/h (2 Bft)
01.07.2021 11:56 22,1 C 14,8 C 13,6 C 60 % 79 % 33 % 1013 hPa 0,0 l/m 17,3 km/h (3 Bft)
01.07.2021 11:59 22,1 C 14,8 C 13,6 C 60 % 79 % 33 % 1013 hPa 0,0 l/m 16,8 km/h (3 Bft)
01.07.2021 12:02 22,0 C 14,8 C 13,8 C 60 % 79 % 33 % 1013 hPa 0,0 l/m 16,8 km/h (3 Bft)
01.07.2021 12:05 22,0 C 15,0 C 13,8 C 60 % 79 % 33 % 1013 hPa 0,0 l/m 12,6 km/h (3 Bft)
01.07.2021 12:08 22,1 C 15,0 C 14,4 C 60 % 79 % 33 % 1013 hPa 0,0 l/m 8,1 km/h (2 Bft)
01.07.2021 12:11 22,1 C 15,2 C 14,4 C 60 % 79 % 33 % 1012 hPa 0,0 l/m 12,7 km/h (3 Bft)
01.07.2021 12:14 22,1 C 15,6 C 15,6 C 60 % 79 % 33 % 1012 hPa 0,0 l/m 9,6 km/h (2 Bft)
01.07.2021 12:17 22,1 C 15,8 C 15,5 C 60 % 79 % 33 % 1012 hPa 0,0 l/m 4,2 km/h (1 Bft)
01.07.2021 12:20 22,1 C 16,0 C 15,4 C 60 % 78 % 33 % 1012 hPa 0,0 l/m 7,4 km/h (2 Bft)
01.07.2021 12:23 22,1 C 15,9 C 14,9 C 60 % 78 % 33 % 1012 hPa 0,0 l/m 8,0 km/h (2 Bft)
01.07.2021 12:26 22,1 C 15,8 C 14,5 C 60 % 77 % 33 % 1012 hPa 0,0 l/m 12,3 km/h (3 Bft)
01.07.2021 12:29 22,1 C 15,7 C 14,4 C 60 % 77 % 33 % 1012 hPa 0,0 l/m 12,8 km/h (3 Bft)
01.07.2021 12:32 22,1 C 15,6 C 14,4 C 60 % 77 % 33 % 1012 hPa 0,0 l/m 11,6 km/h (2 Bft)
01.07.2021 12:35 22,0 C 15,6 C 14,4 C 60 % 77 % 33 % 1012 hPa 0,0 l/m 11,2 km/h (2 Bft)
01.07.2021 12:38 22,0 C 15,6 C 14,3 C 59 % 77 % 33 % 1012 hPa 0,0 l/m 6,3 km/h (2 Bft)
01.07.2021 12:41 22,0 C 15,5 C 14,3 C 59 % 78 % 33 % 1012 hPa 0,0 l/m 5,6 km/h (1 Bft)
01.07.2021 12:44 21,9 C 16,0 C 16,1 C 59 % 79 % 33 % 1012 hPa 0,0 l/m 4,8 km/h (1 Bft)
01.07.2021 12:47 21,9 C 16,2 C 16,0 C 60 % 78 % 33 % 1012 hPa 0,0 l/m 5,2 km/h (1 Bft)
01.07.2021 12:50 21,9 C 16,2 C 15,2 C 60 % 78 % 33 % 1012 hPa 0,0 l/m 8,2 km/h (2 Bft)
01.07.2021 12:53 21,9 C 16,2 C 15,0 C 60 % 78 % 33 % 1012 hPa 0,0 l/m 8,2 km/h (2 Bft)
01.07.2021 12:56 21,9 C 16,0 C 14,7 C 60 % 77 % 33 % 1012 hPa 0,0 l/m 5,6 km/h (1 Bft)
01.07.2021 12:59 21,8 C 16,0 C 14,1 C 60 % 77 % 33 % 1012 hPa 0,0 l/m 7,2 km/h (2 Bft)
01.07.2021 13:02 21,8 C 15,6 C 13,5 C 60 % 78 % 33 % 1012 hPa 0,0 l/m 6,1 km/h (2 Bft)
01.07.2021 13:05 21,8 C 15,4 C 13,3 C 60 % 79 % 33 % 1012 hPa 1,0 l/m 8,9 km/h (2 Bft)
01.07.2021 13:08 21,8 C 15,2 C 12,7 C 60 % 79 % 33 % 1012 hPa 0,3 l/m 16,6 km/h (3 Bft)
01.07.2021 13:11 21,9 C 15,0 C 12,6 C 60 % 80 % 33 % 1012 hPa 0,0 l/m 5,4 km/h (1 Bft)
01.07.2021 13:14 21,9 C 15,0 C 12,7 C 60 % 80 % 33 % 1012 hPa 0,0 l/m 5,4 km/h (1 Bft)
01.07.2021 13:17 21,8 C 15,0 C 13,6 C 60 % 80 % 33 % 1012 hPa 0,0 l/m 1,9 km/h (1 Bft)
01.07.2021 13:20 22,0 C 15,0 C 13,6 C 60 % 81 % 33 % 1012 hPa 0,0 l/m 7,6 km/h (2 Bft)
01.07.2021 13:23 21,9 C 15,0 C 14,0 C 60 % 82 % 33 % 1012 hPa 0,0 l/m 5,8 km/h (2 Bft)
01.07.2021 13:26 22,0 C 15,2 C 13,9 C 60 % 82 % 33 % 1012 hPa 0,0 l/m 4,5 km/h (1 Bft)
01.07.2021 13:29 22,0 C 15,2 C 13,9 C 60 % 82 % 33 % 1012 hPa 0,0 l/m 11,1 km/h (2 Bft)
01.07.2021 13:32 22,0 C 15,2 C 14,2 C 60 % 82 % 33 % 1012 hPa 0,0 l/m 13,6 km/h (3 Bft)
01.07.2021 13:35 22,0 C 15,3 C 13,3 C 60 % 82 % 33 % 1012 hPa 0,3 l/m 5,2 km/h (1 Bft)
01.07.2021 13:38 22,0 C 15,1 C 12,6 C 60 % 82 % 33 % 1012 hPa 0,7 l/m 10,8 km/h (2 Bft)
01.07.2021 13:41 22,0 C 15,0 C 12,9 C 60 % 82 % 33 % 1012 hPa 0,7 l/m 3,1 km/h (1 Bft)
01.07.2021 13:44 22,0 C 15,0 C 12,8 C 60 % 82 % 33 % 1012 hPa 0,0 l/m 7,8 km/h (2 Bft)
01.07.2021 13:47 22,0 C 14,8 C 13,0 C 60 % 82 % 33 % 1012 hPa 0,0 l/m 5,4 km/h (1 Bft)
01.07.2021 13:50 22,0 C 15,0 C 13,1 C 60 % 83 % 33 % 1012 hPa 0,0 l/m 7,0 km/h (2 Bft)
01.07.2021 13:53 22,1 C 15,0 C 13,1 C 60 % 83 % 33 % 1012 hPa 0,0 l/m 7,9 km/h (2 Bft)
01.07.2021 13:56 22,1 C 15,0 C 13,2 C 60 % 83 % 33 % 1012 hPa 0,0 l/m 4,9 km/h (1 Bft)
01.07.2021 13:59 22,1 C 15,0 C 13,3 C 60 % 82 % 33 % 1012 hPa 0,0 l/m 8,4 km/h (2 Bft)
01.07.2021 14:02 22,1 C 15,0 C 14,1 C 60 % 82 % 33 % 1012 hPa 0,0 l/m 1,9 km/h (1 Bft)
01.07.2021 14:05 22,1 C 15,1 C 13,9 C 60 % 83 % 33 % 1012 hPa 0,0 l/m 3,9 km/h (1 Bft)
01.07.2021 14:08 22,1 C 15,1 C 13,9 C 60 % 82 % 33 % 1012 hPa 0,0 l/m 3,4 km/h (1 Bft)
01.07.2021 14:11 22,1 C 15,0 C 13,6 C 60 % 82 % 33 % 1012 hPa 0,3 l/m 2,1 km/h (1 Bft)
01.07.2021 14:14 22,1 C 15,1 C 13,8 C 60 % 83 % 33 % 1012 hPa 0,0 l/m 0,0 km/h (0 Bft)
01.07.2021 14:17 22,1 C 15,0 C 13,8 C 60 % 82 % 33 % 1012 hPa 0,0 l/m 0,2 km/h (0 Bft)
01.07.2021 14:20 22,0 C 15,0 C 13,4 C 61 % 82 % 33 % 1012 hPa 0,0 l/m 0,3 km/h (0 Bft)
01.07.2021 14:23 22,0 C 15,0 C 13,2 C 61 % 82 % 33 % 1012 hPa 0,0 l/m 0,0 km/h (0 Bft)
01.07.2021 14:26 21,9 C 15,0 C 13,2 C 62 % 82 % 33 % 1012 hPa 0,3 l/m 0,0 km/h (0 Bft)
01.07.2021 14:29 21,9 C 15,0 C 13,2 C 62 % 82 % 33 % 1012 hPa 1,0 l/m 2,2 km/h (1 Bft)
01.07.2021 14:32 21,9 C 15,0 C 13,2 C 62 % 82 % 33 % 1012 hPa 1,0 l/m 0,1 km/h (0 Bft)
01.07.2021 14:35 21,9 C 15,0 C 13,6 C 62 % 83 % 33 % 1012 hPa 0,0 l/m 0,0 km/h (0 Bft)
01.07.2021 14:38 21,9 C 15,0 C 13,9 C 62 % 82 % 33 % 1012 hPa 0,0 l/m 0,1 km/h (0 Bft)
01.07.2021 14:41 21,9 C 15,1 C 13,9 C 62 % 82 % 33 % 1012 hPa 0,0 l/m 3,3 km/h (1 Bft)
01.07.2021 14:44 21,9 C 15,0 C 13,4 C 62 % 82 % 33 % 1012 hPa 0,0 l/m 0,1 km/h (0 Bft)
01.07.2021 14:47 21,9 C 15,0 C 13,8 C 62 % 82 % 33 % 1012 hPa 0,0 l/m 0,1 km/h (0 Bft)
01.07.2021 14:50 21,9 C 14,9 C 12,8 C 62 % 82 % 33 % 1012 hPa 0,3 l/m 24,2 km/h (4 Bft)
01.07.2021 14:53 21,9 C 14,4 C 12,1 C 62 % 82 % 33 % 1012 hPa 0,0 l/m 17,9 km/h (3 Bft)
01.07.2021 14:56 21,9 C 14,3 C 12,5 C 62 % 83 % 33 % 1012 hPa 0,3 l/m 16,0 km/h (3 Bft)
01.07.2021 14:59 21,9 C 14,3 C 12,7 C 62 % 83 % 33 % 1012 hPa 0,0 l/m 11,0 km/h (2 Bft)
01.07.2021 15:02 21,8 C 14,4 C 12,6 C 62 % 83 % 33 % 1012 hPa 0,0 l/m 14,3 km/h (3 Bft)
01.07.2021 15:05 21,8 C 14,5 C 13,1 C 62 % 83 % 33 % 1012 hPa 0,0 l/m 11,3 km/h (2 Bft)
01.07.2021 15:08 21,9 C 14,6 C 14,0 C 62 % 82 % 33 % 1012 hPa 0,0 l/m 6,4 km/h (2 Bft)
01.07.2021 15:11 21,9 C 14,8 C 13,6 C 62 % 82 % 33 % 1012 hPa 0,0 l/m 5,6 km/h (1 Bft)
01.07.2021 15:14 21,9 C 14,8 C 13,9 C 62 % 82 % 33 % 1012 hPa 0,0 l/m 10,8 km/h (2 Bft)
01.07.2021 15:17 21,9 C 15,0 C 13,6 C 62 % 82 % 33 % 1012 hPa 0,0 l/m 7,4 km/h (2 Bft)
01.07.2021 15:20 21,9 C 15,1 C 13,5 C 62 % 82 % 33 % 1012 hPa 0,0 l/m 11,5 km/h (2 Bft)
01.07.2021 15:23 22,0 C 15,2 C 13,5 C 62 % 82 % 33 % 1012 hPa 0,0 l/m 13,4 km/h (3 Bft)
01.07.2021 15:26 22,0 C 15,2 C 13,2 C 62 % 82 % 33 % 1012 hPa 0,0 l/m 13,4 km/h (3 Bft)
01.07.2021 15:29 22,0 C 15,2 C 13,5 C 62 % 82 % 33 % 1012 hPa 0,0 l/m 12,0 km/h (2 Bft)
01.07.2021 15:32 22,0 C 15,3 C 13,5 C 63 % 82 % 33 % 1012 hPa 0,0 l/m 9,6 km/h (2 Bft)
01.07.2021 15:35 22,0 C 15,5 C 14,0 C 63 % 82 % 33 % 1012 hPa 0,0 l/m 9,9 km/h (2 Bft)
01.07.2021 15:38 22,0 C 15,5 C 13,5 C 62 % 82 % 33 % 1012 hPa 0,0 l/m 9,9 km/h (2 Bft)
01.07.2021 15:41 22,0 C 15,5 C 13,4 C 62 % 82 % 33 % 1012 hPa 0,0 l/m 14,3 km/h (3 Bft)
01.07.2021 15:44 22,0 C 15,4 C 12,9 C 62 % 82 % 33 % 1012 hPa 0,0 l/m 10,7 km/h (2 Bft)
01.07.2021 15:47 22,0 C 15,2 C 13,1 C 62 % 82 % 33 % 1012 hPa 0,0 l/m 12,3 km/h (3 Bft)
01.07.2021 15:50 21,8 C 15,2 C 13,1 C 62 % 82 % 33 % 1012 hPa 0,0 l/m 13,7 km/h (3 Bft)
01.07.2021 15:53 21,8 C 15,2 C 13,1 C 62 % 82 % 33 % 1013 hPa 0,0 l/m 13,1 km/h (3 Bft)
01.07.2021 15:56 21,8 C 15,1 C 13,0 C 62 % 82 % 33 % 1013 hPa 0,0 l/m 20,1 km/h (4 Bft)
01.07.2021 15:59 21,9 C 15,2 C 12,8 C 62 % 82 % 33 % 1012 hPa 0,0 l/m 17,2 km/h (3 Bft)
01.07.2021 16:02 21,9 C 15,2 C 12,8 C 62 % 82 % 33 % 1012 hPa 0,0 l/m 15,0 km/h (3 Bft)
01.07.2021 16:05 21,9 C 15,2 C 13,5 C 62 % 82 % 33 % 1012 hPa 0,0 l/m 15,0 km/h (3 Bft)
01.07.2021 16:08 22,0 C 15,2 C 13,4 C 62 % 82 % 33 % 1012 hPa 0,0 l/m 5,4 km/h (1 Bft)
01.07.2021 16:11 22,0 C 15,5 C 12,7 C 62 % 82 % 33 % 1012 hPa 0,0 l/m 16,2 km/h (3 Bft)
01.07.2021 16:14 22,0 C 15,4 C 13,3 C 62 % 81 % 33 % 1012 hPa 0,0 l/m 14,1 km/h (3 Bft)
01.07.2021 16:17 21,9 C 15,4 C 13,7 C 62 % 81 % 33 % 1012 hPa 0,0 l/m 14,5 km/h (3 Bft)
01.07.2021 16:20 21,9 C 15,6 C 14,1 C 62 % 81 % 33 % 1012 hPa 0,0 l/m 9,2 km/h (2 Bft)
01.07.2021 16:23 21,9 C 15,6 C 14,5 C 62 % 81 % 33 % 1012 hPa 0,0 l/m 13,8 km/h (3 Bft)
01.07.2021 16:26 21,9 C 15,6 C 14,7 C 62 % 81 % 33 % 1012 hPa 0,0 l/m 10,8 km/h (2 Bft)
01.07.2021 16:29 21,8 C 15,7 C 15,0 C 61 % 81 % 33 % 1012 hPa 0,0 l/m 11,3 km/h (2 Bft)
01.07.2021 16:32 21,8 C 15,9 C 15,3 C 61 % 81 % 33 % 1012 hPa 0,0 l/m 15,1 km/h (3 Bft)
01.07.2021 16:35 21,8 C 16,1 C 15,5 C 61 % 81 % 33 % 1012 hPa 0,0 l/m 17,1 km/h (3 Bft)
01.07.2021 16:38 21,9 C 16,3 C 15,5 C 62 % 80 % 33 % 1012 hPa 0,0 l/m 14,5 km/h (3 Bft)
01.07.2021 16:41 21,9 C 16,4 C 15,3 C 62 % 80 % 33 % 1012 hPa 0,0 l/m 10,2 km/h (2 Bft)
01.07.2021 16:44 21,9 C 16,4 C 15,1 C 62 % 80 % 33 % 1012 hPa 0,0 l/m 10,1 km/h (2 Bft)
01.07.2021 16:47 21,9 C 16,4 C 15,1 C 62 % 79 % 33 % 1012 hPa 0,0 l/m 9,8 km/h (2 Bft)
01.07.2021 16:50 21,9 C 16,4 C 15,1 C 62 % 79 % 33 % 1012 hPa 0,0 l/m 11,1 km/h (2 Bft)
01.07.2021 16:53 21,9 C 16,4 C 15,0 C 62 % 79 % 33 % 1012 hPa 0,0 l/m 11,8 km/h (2 Bft)
01.07.2021 16:56 22,0 C 16,3 C 15,0 C 62 % 79 % 33 % 1012 hPa 0,0 l/m 8,0 km/h (2 Bft)
01.07.2021 16:59 22,0 C 16,3 C 14,8 C 62 % 79 % 33 % 1012 hPa 0,0 l/m 3,1 km/h (1 Bft)
01.07.2021 17:02 22,0 C 16,2 C 14,6 C 62 % 79 % 33 % 1012 hPa 0,0 l/m 4,2 km/h (1 Bft)
01.07.2021 17:05 22,0 C 16,1 C 14,7 C 62 % 79 % 33 % 1012 hPa 0,0 l/m 6,1 km/h (2 Bft)
01.07.2021 17:08 22,0 C 16,1 C 14,5 C 62 % 80 % 33 % 1012 hPa 0,0 l/m 3,7 km/h (1 Bft)
01.07.2021 17:11 22,0 C 16,0 C 14,6 C 62 % 80 % 33 % 1012 hPa 0,0 l/m 3,4 km/h (1 Bft)
01.07.2021 17:14 22,0 C 16,0 C 14,5 C 62 % 80 % 33 % 1012 hPa 0,0 l/m 4,5 km/h (1 Bft)
01.07.2021 17:17 22,0 C 16,0 C 14,5 C 61 % 80 % 33 % 1012 hPa 0,0 l/m 4,5 km/h (1 Bft)
01.07.2021 17:20 22,0 C 16,0 C 14,6 C 61 % 80 % 33 % 1012 hPa 0,0 l/m 1,7 km/h (1 Bft)
01.07.2021 17:23 22,0 C 15,9 C 14,4 C 61 % 80 % 33 % 1012 hPa 0,0 l/m 7,8 km/h (2 Bft)
01.07.2021 17:26 22,0 C 15,8 C 14,4 C 62 % 80 % 33 % 1012 hPa 0,0 l/m 7,6 km/h (2 Bft)
01.07.2021 17:29 22,0 C 15,8 C 14,4 C 62 % 81 % 33 % 1013 hPa 0,0 l/m 5,3 km/h (1 Bft)
01.07.2021 17:32 22,0 C 15,8 C 14,4 C 62 % 81 % 33 % 1013 hPa 0,0 l/m 4,0 km/h (1 Bft)
01.07.2021 17:35 22,0 C 15,8 C 14,5 C 62 % 81 % 33 % 1013 hPa 0,0 l/m 6,8 km/h (2 Bft)
01.07.2021 17:38 22,0 C 15,9 C 14,7 C 62 % 81 % 33 % 1013 hPa 0,0 l/m 6,1 km/h (2 Bft)
01.07.2021 17:41 22,0 C 15,9 C 14,7 C 62 % 81 % 33 % 1013 hPa 0,0 l/m 4,8 km/h (1 Bft)
01.07.2021 17:44 22,0 C 16,0 C 14,9 C 62 % 81 % 33 % 1013 hPa 0,0 l/m 4,8 km/h (1 Bft)
01.07.2021 17:47 22,1 C 16,0 C 15,0 C 62 % 81 % 33 % 1013 hPa 0,0 l/m 6,0 km/h (2 Bft)
01.07.2021 17:50 22,0 C 16,1 C 14,8 C 62 % 80 % 33 % 1013 hPa 0,0 l/m 5,9 km/h (2 Bft)
01.07.2021 17:53 22,0 C 16,1 C 14,9 C 62 % 80 % 33 % 1012 hPa 0,0 l/m 3,7 km/h (1 Bft)
01.07.2021 17:56 22,1 C 16,2 C 15,0 C 62 % 80 % 33 % 1012 hPa 0,0 l/m 2,1 km/h (1 Bft)
01.07.2021 17:59 22,1 C 16,2 C 15,0 C 62 % 80 % 33 % 1012 hPa 0,0 l/m 1,2 km/h (1 Bft)
01.07.2021 18:02 22,0 C 16,2 C 15,1 C 62 % 80 % 33 % 1012 hPa 0,0 l/m 4,2 km/h (1 Bft)
01.07.2021 18:05 22,0 C 16,3 C 15,1 C 62 % 80 % 33 % 1012 hPa 0,0 l/m 1,2 km/h (1 Bft)
01.07.2021 18:08 22,0 C 16,4 C 15,1 C 62 % 80 % 33 % 1012 hPa 0,0 l/m 0,4 km/h (0 Bft)
01.07.2021 18:11 22,0 C 16,4 C 15,1 C 62 % 79 % 33 % 1012 hPa 0,0 l/m 1,2 km/h (1 Bft)
01.07.2021 18:14 21,9 C 16,4 C 15,1 C 62 % 79 % 33 % 1012 hPa 0,0 l/m 5,6 km/h (1 Bft)
01.07.2021 18:17 21,9 C 16,5 C 15,2 C 62 % 79 % 33 % 1012 hPa 0,0 l/m 1,2 km/h (1 Bft)
01.07.2021 18:20 21,8 C 16,5 C 15,3 C 61 % 79 % 33 % 1012 hPa 0,0 l/m 3,0 km/h (1 Bft)
01.07.2021 18:23 21,8 C 16,6 C 15,2 C 61 % 78 % 33 % 1013 hPa 0,0 l/m 6,1 km/h (2 Bft)
01.07.2021 18:26 21,8 C 16,6 C 15,1 C 61 % 78 % 33 % 1013 hPa 0,0 l/m 0,6 km/h (0 Bft)
01.07.2021 18:29 21,8 C 16,6 C 15,1 C 61 % 79 % 33 % 1013 hPa 0,0 l/m 4,0 km/h (1 Bft)
01.07.2021 18:32 21,8 C 16,6 C 15,1 C 61 % 79 % 33 % 1013 hPa 0,0 l/m 4,0 km/h (1 Bft)
01.07.2021 18:35 21,8 C 16,6 C 15,1 C 61 % 78 % 33 % 1012 hPa 0,0 l/m 12,1 km/h (2 Bft)
01.07.2021 18:38 21,8 C 16,6 C 15,1 C 61 % 77 % 33 % 1012 hPa 0,0 l/m 10,5 km/h (2 Bft)
01.07.2021 18:41 21,8 C 16,6 C 15,0 C 61 % 76 % 33 % 1012 hPa 0,0 l/m 11,0 km/h (2 Bft)
01.07.2021 18:44 21,8 C 16,6 C 15,0 C 61 % 76 % 33 % 1012 hPa 0,0 l/m 9,4 km/h (2 Bft)
01.07.2021 18:47 21,8 C 16,5 C 14,8 C 61 % 76 % 33 % 1012 hPa 0,0 l/m 15,4 km/h (3 Bft)
01.07.2021 18:50 21,8 C 16,5 C 14,8 C 61 % 76 % 33 % 1012 hPa 0,0 l/m 13,8 km/h (3 Bft)
01.07.2021 18:53 21,8 C 16,4 C 14,9 C 61 % 77 % 33 % 1012 hPa 0,0 l/m 14,0 km/h (3 Bft)
01.07.2021 18:56 21,8 C 16,4 C 14,9 C 61 % 77 % 33 % 1012 hPa 0,0 l/m 5,7 km/h (1 Bft)
01.07.2021 18:59 21,8 C 16,5 C 14,8 C 61 % 78 % 33 % 1012 hPa 0,0 l/m 3,6 km/h (1 Bft)
01.07.2021 19:02 21,8 C 16,5 C 14,9 C 61 % 78 % 33 % 1012 hPa 0,0 l/m 2,8 km/h (1 Bft)
01.07.2021 19:05 21,8 C 16,5 C 14,9 C 61 % 78 % 33 % 1012 hPa 0,0 l/m 0,4 km/h (0 Bft)
01.07.2021 19:08 21,8 C 16,5 C 14,9 C 61 % 79 % 33 % 1012 hPa 0,0 l/m 4,6 km/h (1 Bft)
01.07.2021 19:11 21,8 C 16,5 C 15,0 C 61 % 79 % 33 % 1012 hPa 0,0 l/m 0,8 km/h (0 Bft)
01.07.2021 19:14 21,8 C 16,5 C 14,9 C 61 % 79 % 33 % 1012 hPa 0,0 l/m 3,2 km/h (1 Bft)
01.07.2021 19:17 21,8 C 16,4 C 14,8 C 61 % 79 % 33 % 1012 hPa 0,0 l/m 6,5 km/h (2 Bft)
01.07.2021 19:20 21,8 C 16,5 C 14,9 C 61 % 79 % 33 % 1013 hPa 0,0 l/m 2,8 km/h (1 Bft)
01.07.2021 19:23 21,8 C 16,5 C 14,8 C 61 % 78 % 33 % 1013 hPa 0,0 l/m 10,0 km/h (2 Bft)
01.07.2021 19:26 21,8 C 16,4 C 14,7 C 61 % 78 % 33 % 1013 hPa 0,0 l/m 8,6 km/h (2 Bft)
01.07.2021 19:29 21,8 C 16,4 C 14,7 C 61 % 78 % 33 % 1013 hPa 0,0 l/m 9,3 km/h (2 Bft)
01.07.2021 19:32 21,8 C 16,4 C 14,6 C 61 % 78 % 33 % 1013 hPa 0,0 l/m 8,2 km/h (2 Bft)
01.07.2021 19:35 21,7 C 16,3 C 14,6 C 61 % 78 % 33 % 1013 hPa 0,0 l/m 10,5 km/h (2 Bft)
01.07.2021 19:38 21,7 C 16,2 C 14,6 C 61 % 78 % 33 % 1013 hPa 0,0 l/m 10,1 km/h (2 Bft)
01.07.2021 19:41 21,7 C 16,2 C 14,6 C 61 % 77 % 33 % 1013 hPa 0,0 l/m 11,6 km/h (2 Bft)
01.07.2021 19:44 21,6 C 16,2 C 14,5 C 61 % 78 % 33 % 1013 hPa 0,0 l/m 8,5 km/h (2 Bft)
01.07.2021 19:47 21,6 C 16,2 C 14,5 C 61 % 78 % 33 % 1013 hPa 0,0 l/m 8,9 km/h (2 Bft)
01.07.2021 19:50 21,7 C 16,2 C 14,4 C 61 % 78 % 33 % 1013 hPa 0,0 l/m 11,0 km/h (2 Bft)
01.07.2021 19:53 21,6 C 16,1 C 14,2 C 61 % 78 % 33 % 1013 hPa 0,0 l/m 23,1 km/h (4 Bft)
01.07.2021 19:56 21,6 C 16,0 C 14,1 C 61 % 78 % 33 % 1013 hPa 0,0 l/m 21,3 km/h (4 Bft)
01.07.2021 19:59 21,6 C 15,8 C 14,0 C 61 % 79 % 33 % 1013 hPa 0,0 l/m 14,2 km/h (3 Bft)
01.07.2021 20:02 21,7 C 15,7 C 14,0 C 61 % 80 % 33 % 1013 hPa 0,0 l/m 10,4 km/h (2 Bft)
01.07.2021 20:05 21,8 C 15,6 C 14,0 C 61 % 80 % 33 % 1013 hPa 0,0 l/m 6,8 km/h (2 Bft)
01.07.2021 20:08 21,8 C 15,6 C 13,9 C 61 % 80 % 33 % 1013 hPa 0,0 l/m 15,1 km/h (3 Bft)
01.07.2021 20:11 21,8 C 15,5 C 13,9 C 61 % 81 % 33 % 1013 hPa 0,0 l/m 10,3 km/h (2 Bft)
01.07.2021 20:14 21,8 C 15,5 C 13,9 C 61 % 81 % 33 % 1013 hPa 0,0 l/m 9,4 km/h (2 Bft)
01.07.2021 20:17 21,8 C 15,5 C 13,9 C 61 % 81 % 33 % 1013 hPa 0,0 l/m 8,2 km/h (2 Bft)
01.07.2021 20:20 21,9 C 15,4 C 13,9 C 61 % 81 % 33 % 1013 hPa 0,0 l/m 9,3 km/h (2 Bft)
01.07.2021 20:23 21,9 C 15,4 C 13,9 C 61 % 81 % 33 % 1013 hPa 0,0 l/m 9,3 km/h (2 Bft)
01.07.2021 20:26 21,9 C 15,4 C 13,9 C 61 % 82 % 33 % 1013 hPa 0,0 l/m 10,0 km/h (2 Bft)
01.07.2021 20:29 21,9 C 15,3 C 13,9 C 61 % 82 % 33 % 1013 hPa 0,0 l/m 12,0 km/h (2 Bft)
01.07.2021 20:32 21,9 C 15,4 C 13,8 C 61 % 82 % 33 % 1013 hPa 0,0 l/m 9,9 km/h (2 Bft)
01.07.2021 20:35 21,9 C 15,4 C 13,8 C 61 % 82 % 33 % 1013 hPa 0,0 l/m 11,0 km/h (2 Bft)
01.07.2021 20:38 21,9 C 15,3 C 13,9 C 61 % 82 % 33 % 1013 hPa 0,0 l/m 11,4 km/h (2 Bft)
01.07.2021 20:41 21,9 C 15,3 C 13,8 C 61 % 82 % 33 % 1013 hPa 0,0 l/m 8,9 km/h (2 Bft)
01.07.2021 20:44 21,9 C 15,3 C 13,8 C 61 % 82 % 33 % 1013 hPa 0,0 l/m 10,1 km/h (2 Bft)
01.07.2021 20:47 21,9 C 15,2 C 13,8 C 61 % 81 % 33 % 1013 hPa 0,0 l/m 11,0 km/h (2 Bft)
01.07.2021 20:50 21,9 C 15,2 C 13,8 C 61 % 81 % 33 % 1013 hPa 0,0 l/m 11,0 km/h (2 Bft)
01.07.2021 20:53 21,9 C 15,2 C 13,7 C 61 % 81 % 33 % 1013 hPa 0,0 l/m 10,8 km/h (2 Bft)
01.07.2021 20:56 21,9 C 15,2 C 13,7 C 61 % 81 % 33 % 1013 hPa 0,0 l/m 10,8 km/h (2 Bft)
01.07.2021 20:59 21,9 C 15,2 C 13,7 C 61 % 81 % 33 % 1013 hPa 0,0 l/m 7,0 km/h (2 Bft)
01.07.2021 21:02 21,9 C 15,1 C 13,6 C 61 % 81 % 33 % 1013 hPa 0,0 l/m 4,2 km/h (1 Bft)
01.07.2021 21:05 21,9 C 15,1 C 13,6 C 61 % 81 % 33 % 1013 hPa 0,0 l/m 8,1 km/h (2 Bft)
01.07.2021 21:08 21,9 C 15,0 C 13,6 C 61 % 82 % 33 % 1013 hPa 0,0 l/m 0,4 km/h (0 Bft)
01.07.2021 21:11 21,9 C 15,0 C 13,5 C 61 % 82 % 33 % 1013 hPa 0,0 l/m 2,5 km/h (1 Bft)
01.07.2021 21:14 21,9 C 15,0 C 13,5 C 61 % 82 % 33 % 1013 hPa 0,0 l/m 0,3 km/h (0 Bft)
01.07.2021 21:17 21,9 C 15,0 C 13,5 C 61 % 82 % 33 % 1013 hPa 0,0 l/m 0,6 km/h (0 Bft)
01.07.2021 21:20 21,9 C 15,0 C 13,4 C 61 % 82 % 33 % 1013 hPa 0,0 l/m 1,8 km/h (1 Bft)
01.07.2021 21:23 21,9 C 15,0 C 13,4 C 61 % 82 % 33 % 1013 hPa 0,0 l/m 0,3 km/h (0 Bft)
01.07.2021 21:26 21,9 C 15,0 C 13,3 C 61 % 82 % 33 % 1013 hPa 0,0 l/m 0,1 km/h (0 Bft)
01.07.2021 21:29 21,9 C 15,0 C 13,3 C 61 % 82 % 33 % 1013 hPa 0,0 l/m 0,5 km/h (0 Bft)
01.07.2021 21:32 21,9 C 15,0 C 13,2 C 61 % 82 % 33 % 1013 hPa 0,0 l/m 0,0 km/h (0 Bft)
01.07.2021 21:35 21,9 C 14,8 C 13,3 C 61 % 82 % 33 % 1013 hPa 0,0 l/m 2,4 km/h (1 Bft)
01.07.2021 21:38 21,9 C 14,8 C 13,2 C 61 % 82 % 33 % 1013 hPa 0,0 l/m 0,3 km/h (0 Bft)
01.07.2021 21:41 21,9 C 14,8 C 13,2 C 61 % 82 % 33 % 1013 hPa 0,0 l/m 0,3 km/h (0 Bft)
01.07.2021 21:44 21,9 C 14,8 C 13,2 C 61 % 82 % 33 % 1014 hPa 0,0 l/m 0,3 km/h (0 Bft)
01.07.2021 21:47 21,9 C 14,7 C 13,2 C 61 % 82 % 33 % 1014 hPa 0,0 l/m 0,4 km/h (0 Bft)
01.07.2021 21:50 21,9 C 14,7 C 13,2 C 61 % 82 % 33 % 1014 hPa 0,0 l/m 0,0 km/h (0 Bft)
01.07.2021 21:53 21,9 C 14,7 C 13,2 C 61 % 82 % 33 % 1014 hPa 0,0 l/m 0,0 km/h (0 Bft)
01.07.2021 21:56 21,9 C 14,7 C 13,2 C 61 % 82 % 33 % 1014 hPa 0,0 l/m 0,0 km/h (0 Bft)
01.07.2021 21:59 21,9 C 14,7 C 13,2 C 61 % 82 % 33 % 1014 hPa 0,0 l/m 0,0 km/h (0 Bft)
01.07.2021 22:02 21,9 C 14,7 C 13,2 C 61 % 82 % 33 % 1014 hPa 0,0 l/m 0,1 km/h (0 Bft)
01.07.2021 22:05 22,0 C 14,7 C 13,2 C 61 % 82 % 33 % 1014 hPa 0,0 l/m 0,4 km/h (0 Bft)
01.07.2021 22:08 22,0 C 14,6 C 13,3 C 61 % 82 % 33 % 1014 hPa 0,0 l/m 1,8 km/h (1 Bft)
01.07.2021 22:11 22,0 C 14,6 C 13,2 C 61 % 82 % 33 % 1014 hPa 0,0 l/m 0,1 km/h (0 Bft)
01.07.2021 22:14 22,0 C 14,6 C 13,1 C 61 % 82 % 33 % 1014 hPa 0,0 l/m 0,1 km/h (0 Bft)
01.07.2021 22:17 22,0 C 14,6 C 13,1 C 61 % 82 % 33 % 1014 hPa 0,0 l/m 0,0 km/h (0 Bft)
01.07.2021 22:20 22,0 C 14,6 C 13,2 C 61 % 82 % 33 % 1014 hPa 0,0 l/m 0,1 km/h (0 Bft)
01.07.2021 22:23 22,0 C 14,6 C 13,2 C 61 % 83 % 33 % 1014 hPa 0,0 l/m 0,3 km/h (0 Bft)
01.07.2021 22:26 22,0 C 14,6 C 13,1 C 61 % 83 % 33 % 1014 hPa 0,0 l/m 0,1 km/h (0 Bft)
01.07.2021 22:29 22,0 C 14,5 C 13,1 C 61 % 83 % 33 % 1014 hPa 0,0 l/m 0,0 km/h (0 Bft)
01.07.2021 22:32 22,0 C 14,5 C 13,1 C 61 % 83 % 33 % 1014 hPa 0,0 l/m 0,1 km/h (0 Bft)
01.07.2021 22:35 22,0 C 14,5 C 13,1 C 61 % 83 % 33 % 1014 hPa 0,0 l/m 0,0 km/h (0 Bft)
01.07.2021 22:38 22,0 C 14,5 C 13,1 C 61 % 83 % 33 % 1014 hPa 0,0 l/m 0,0 km/h (0 Bft)
01.07.2021 22:41 22,0 C 14,5 C 13,1 C 61 % 83 % 33 % 1014 hPa 0,0 l/m 0,0 km/h (0 Bft)
01.07.2021 22:44 22,0 C 14,5 C 13,1 C 61 % 83 % 33 % 1014 hPa 0,0 l/m 0,1 km/h (0 Bft)
01.07.2021 22:47 22,0 C 14,5 C 13,1 C 61 % 83 % 33 % 1014 hPa 0,0 l/m 0,3 km/h (0 Bft)
01.07.2021 22:50 22,0 C 14,5 C 13,1 C 61 % 83 % 33 % 1014 hPa 0,0 l/m 1,7 km/h (1 Bft)
01.07.2021 22:53 21,9 C 14,5 C 13,2 C 61 % 83 % 33 % 1014 hPa 0,0 l/m 1,7 km/h (1 Bft)
01.07.2021 22:56 21,9 C 14,5 C 13,2 C 61 % 83 % 33 % 1014 hPa 0,0 l/m 9,2 km/h (2 Bft)
01.07.2021 22:59 21,9 C 14,5 C 13,2 C 61 % 82 % 33 % 1014 hPa 0,0 l/m 8,1 km/h (2 Bft)
01.07.2021 23:02 22,0 C 14,5 C 13,2 C 61 % 82 % 33 % 1014 hPa 0,0 l/m 12,1 km/h (2 Bft)
01.07.2021 23:05 22,0 C 14,5 C 13,2 C 61 % 82 % 33 % 1014 hPa 0,0 l/m 6,1 km/h (2 Bft)
01.07.2021 23:08 21,9 C 14,5 C 13,2 C 61 % 81 % 33 % 1014 hPa 0,0 l/m 9,6 km/h (2 Bft)
01.07.2021 23:11 22,0 C 14,5 C 13,2 C 61 % 81 % 33 % 1014 hPa 0,0 l/m 5,1 km/h (1 Bft)
01.07.2021 23:14 22,0 C 14,5 C 13,2 C 61 % 81 % 33 % 1014 hPa 0,0 l/m 1,2 km/h (1 Bft)
01.07.2021 23:17 22,0 C 14,5 C 13,2 C 61 % 81 % 33 % 1014 hPa 0,0 l/m 7,6 km/h (2 Bft)
01.07.2021 23:20 21,9 C 14,5 C 13,2 C 61 % 81 % 33 % 1014 hPa 0,0 l/m 5,6 km/h (1 Bft)
01.07.2021 23:23 21,9 C 14,5 C 13,2 C 61 % 81 % 33 % 1014 hPa 0,0 l/m 6,6 km/h (2 Bft)
01.07.2021 23:26 22,0 C 14,5 C 13,2 C 61 % 81 % 33 % 1014 hPa 0,0 l/m 2,7 km/h (1 Bft)
01.07.2021 23:29 21,9 C 14,4 C 13,1 C 61 % 81 % 33 % 1014 hPa 0,0 l/m 0,7 km/h (0 Bft)
01.07.2021 23:32 21,9 C 14,4 C 13,1 C 61 % 81 % 33 % 1014 hPa 0,0 l/m 2,8 km/h (1 Bft)
01.07.2021 23:35 21,9 C 14,4 C 13,1 C 61 % 81 % 33 % 1014 hPa 0,0 l/m 2,8 km/h (1 Bft)
01.07.2021 23:38 21,9 C 14,4 C 13,0 C 61 % 81 % 33 % 1014 hPa 0,0 l/m 3,5 km/h (1 Bft)
01.07.2021 23:41 21,9 C 14,4 C 13,1 C 61 % 81 % 33 % 1014 hPa 0,0 l/m 0,0 km/h (0 Bft)
01.07.2021 23:44 21,9 C 14,4 C 12,9 C 61 % 81 % 33 % 1014 hPa 0,0 l/m 0,0 km/h (0 Bft)
01.07.2021 23:47 21,9 C 14,4 C 12,9 C 61 % 82 % 33 % 1014 hPa 0,0 l/m 0,1 km/h (0 Bft)
01.07.2021 23:50 21,9 C 14,3 C 12,9 C 61 % 82 % 33 % 1014 hPa 0,0 l/m 0,0 km/h (0 Bft)
01.07.2021 23:53 21,9 C 14,3 C 12,9 C 61 % 82 % 33 % 1014 hPa 0,0 l/m 0,0 km/h (0 Bft)
01.07.2021 23:56 21,9 C 14,3 C 12,9 C 61 % 82 % 33 % 1014 hPa 0,0 l/m 0,0 km/h (0 Bft)
01.07.2021 23:59 21,9 C 14,3 C 12,9 C 61 % 82 % 33 % 1014 hPa 0,0 l/m 0,1 km/h (0 Bft)
_ Min-Zeit 19:44 00:26 00:26 06:17 18:41 - 00:26 - 00:26
Minimum _ 21,6 C 11,8 C 10,6 C 58 % 76 % - 1011 hPa - 0,0 km/h (0 Bft)
_ Max-Zeit 10:05 18:23 12:44 15:32 00:26 00:26 21:44 13:05 14:50
Maximum _ 22,1 C 16,6 C 16,1 C 63 % 83 % 33 % 1014 hPa 1,0 l/m 24,2 km/h
N-NW (4 Bft)
Durchschnitt _ 22,0 C 14,1 C 12,9 C 60 % 81 % #5:48 h 1013 hPa #6,8 l/m 6,5 km/h (2 Bft)